Hobart, Indiana
Current Conditions -  °F | °C
As of 3:35 AM on Saturday 25 Oct 2014 (Local Time) from KGYY Reporting Station
Broken Clouds Broken Clouds  
Wind Chill: 57°   Ceiling: 3200
Heat Index: 57°   Visibility: 7mi
Dew Point: 53°   Wind: 3mph
Humidity: 84%   Direction: 210°SSW
Pressure: 29.9"   Gusts: NA
Location:  41.53°N, 87.25°W
Report Text: KGYY 250835Z AUTO 21003KT 7SM BKN032 14/12 A2990 RMK AO2 T01410115
Loading
Personal Weather Stations






























Interactive Weather Map
Tropical Storm Tracking
New forecast layout! Learn more

10-Day Weather Forecast

Advertisements
Track Severe Weather on mobile